Time;durP1;ratioP1;P1;durP2;ratioP2;P2;SDS_P1;SDS_P2;PMS_P1;PMS_P2;Temp;Humidity;BMP_temperature;BMP_pressure;BME280_temperature;BME280_humidity;BME280_pressure;Samples;Min_cycle;Max_cycle;Signal;HPM_P1;HPM_P2
2021/08/08 00:00:44;;;;;;;3.03;1.10;;;;;;;22.01;58.10;100164.69;5034788;28;20441;-63
2021/08/08 00:03:10;;;;;;;2.22;1.02;;;;;;;22.01;58.06;100173.47;5034207;28;20104;-64
2021/08/08 00:05:35;;;;;;;2.35;1.00;;;;;;;22.00;58.18;100179.78;5034948;28;20397;-64
2021/08/08 00:08:04;;;;;;;2.45;1.08;;;;;;;22.00;58.18;100184.25;5034634;28;20116;-63
2021/08/08 00:10:32;;;;;;;2.92;1.20;;;;;;;21.99;58.20;100179.97;5034021;28;20389;-64
2021/08/08 00:13:00;;;;;;;2.60;1.10;;;;;;;22.00;58.17;100178.94;5034559;28;20075;-64
2021/08/08 00:15:25;;;;;;;2.95;1.10;;;;;;;21.99;57.98;100180.78;5034745;28;20025;-64
2021/08/08 00:17:53;;;;;;;2.92;1.10;;;;;;;21.98;58.17;100189.72;5033517;28;20092;-64
2021/08/08 00:20:19;;;;;;;3.08;1.10;;;;;;;21.98;58.09;100183.59;5034587;28;20116;-63
2021/08/08 00:22:44;;;;;;;3.08;1.05;;;;;;;21.98;58.11;100184.41;5034485;28;20108;-64
2021/08/08 00:25:10;;;;;;;3.15;1.25;;;;;;;21.96;58.21;100183.75;5033857;28;20030;-64
2021/08/08 00:27:37;;;;;;;2.55;1.25;;;;;;;21.95;58.02;100183.94;5034545;28;20026;-64
2021/08/08 00:30:06;;;;;;;3.97;1.25;;;;;;;21.95;58.08;100184.75;5034435;28;20021;-64
2021/08/08 00:32:32;;;;;;;2.67;1.10;;;;;;;21.95;58.20;100194.53;5033731;28;20048;-64
2021/08/08 00:34:57;;;;;;;3.50;1.30;;;;;;;21.95;58.09;100189.22;5034347;28;20418;-64
2021/08/08 00:37:22;;;;;;;4.32;1.20;;;;;;;21.93;57.98;100192.88;5034472;28;20018;-63
2021/08/08 00:39:47;;;;;;;4.97;1.30;;;;;;;21.94;57.98;100193.72;5033239;28;20111;-64
2021/08/08 00:42:13;;;;;;;3.20;1.27;;;;;;;21.94;58.02;100196.38;5034522;28;20283;-64
2021/08/08 00:44:38;;;;;;;2.80;1.30;;;;;;;21.94;58.02;100196.38;5033994;28;20293;-63
2021/08/08 00:47:03;;;;;;;3.53;1.27;;;;;;;21.95;57.91;100197.19;5034437;28;20286;-64
2021/08/08 00:49:29;;;;;;;3.22;1.20;;;;;;;21.92;57.99;100191.22;5034447;28;20030;-64
2021/08/08 00:51:54;;;;;;;5.57;1.40;;;;;;;21.86;58.19;100191.88;5033283;28;20032;-64
2021/08/08 00:54:22;;;;;;;3.85;1.20;;;;;;;21.91;58.11;100200.19;5033624;28;20079;-64
2021/08/08 00:56:48;;;;;;;3.20;1.30;;;;;;;21.92;58.15;100209.81;5032834;28;20037;-63
2021/08/08 00:59:13;;;;;;;3.58;1.48;;;;;;;21.91;58.16;100207.31;5033324;28;20022;-64
2021/08/08 01:01:43;;;;;;;4.20;1.37;;;;;;;21.91;57.89;100217.94;5033870;28;20424;-63
2021/08/08 01:04:11;;;;;;;3.70;1.40;;;;;;;21.91;57.96;100216.09;5033780;28;20320;-64
2021/08/08 01:06:51;;;;;;;2.78;1.35;;;;;;;21.91;58.02;100229.34;5033055;28;20056;-64
2021/08/08 01:09:18;;;;;;;3.90;1.45;;;;;;;21.90;57.92;100234.81;5033621;28;20571;-64
2021/08/08 01:11:43;;;;;;;3.40;1.40;;;;;;;21.90;57.83;100234.81;5033412;28;20057;-63
2021/08/08 01:14:11;;;;;;;4.53;1.67;;;;;;;21.88;57.99;100226.22;5032814;28;20064;-63
2021/08/08 01:16:37;;;;;;;2.78;1.20;;;;;;;21.89;57.97;100227.88;5033423;28;20022;-64
2021/08/08 01:19:05;;;;;;;4.47;1.48;;;;;;;21.89;57.93;100241.97;5033025;28;20382;-64
2021/08/08 01:21:33;;;;;;;3.28;1.25;;;;;;;21.89;58.00;100244.63;5032530;28;20029;-63
2021/08/08 01:24:03;;;;;;;4.13;1.60;;;;;;;21.88;57.78;100237.63;5033158;28;20021;-64
2021/08/08 01:26:33;;;;;;;4.32;1.50;;;;;;;21.88;57.79;100242.94;5033036;28;20544;-64
2021/08/08 01:28:59;;;;;;;4.20;1.48;;;;;;;21.88;57.83;100252.72;5031343;28;20047;-64
2021/08/08 01:31:25;;;;;;;3.58;1.35;;;;;;;21.87;57.94;100259.88;5033384;28;20104;-64
2021/08/08 01:33:50;;;;;;;4.00;1.33;;;;;;;21.87;57.87;100243.97;5032167;28;20112;-63
2021/08/08 01:36:19;;;;;;;4.57;1.42;;;;;;;21.88;57.93;100258.03;5032856;28;20387;-63
2021/08/08 01:38:57;;;;;;;5.90;2.05;;;;;;;21.87;57.96;100259.88;5032821;28;20032;-63
2021/08/08 01:41:26;;;;;;;4.95;1.80;;;;;;;21.86;58.06;100258.19;5032390;28;20037;-63
2021/08/08 01:43:53;;;;;;;4.85;2.03;;;;;;;21.85;57.67;100263.66;5032707;28;20060;-66
2021/08/08 01:46:21;;;;;;;5.20;1.50;;;;;;;21.86;57.73;100268.00;5032816;28;20029;-62
2021/08/08 01:48:50;;;;;;;3.90;1.52;;;;;;;21.85;58.21;100269.78;5031833;28;20071;-64
2021/08/08 01:51:16;;;;;;;4.35;1.50;;;;;;;21.84;57.83;100267.31;5032912;28;20025;-63
2021/08/08 01:53:41;;;;;;;4.25;1.50;;;;;;;21.85;57.82;100274.28;5032562;28;20128;-64
2021/08/08 01:56:07;;;;;;;4.40;1.70;;;;;;;21.84;57.88;100273.47;5031942;28;20026;-63
2021/08/08 01:58:38;;;;;;;4.82;1.60;;;;;;;21.83;57.83;100277.09;5032788;28;20017;-63
2021/08/08 02:01:09;;;;;;;5.88;1.63;;;;;;;21.83;57.75;100285.06;5032449;28;20432;-64
2021/08/08 02:03:36;;;;;;;5.47;1.60;;;;;;;21.84;57.74;100280.56;5032076;28;20373;-64
2021/08/08 02:06:04;;;;;;;5.15;1.77;;;;;;;21.82;57.67;100283.38;5032620;28;20060;-63
2021/08/08 02:08:29;;;;;;;3.70;1.30;;;;;;;21.82;57.66;100278.06;5032561;28;20071;-62
2021/08/08 02:10:54;;;;;;;5.55;1.70;;;;;;;21.84;57.67;100283.22;5031570;28;20025;-63
2021/08/08 02:13:20;;;;;;;5.22;1.75;;;;;;;21.83;57.64;100284.22;5032480;28;20049;-63
2021/08/08 02:15:45;;;;;;;4.78;1.65;;;;;;;21.83;57.74;100292.19;5032051;28;20172;-64
2021/08/08 02:18:10;;;;;;;4.03;1.50;;;;;;;21.81;57.53;100288.84;5031866;28;20057;-63
2021/08/08 02:20:36;;;;;;;4.53;1.50;;;;;;;21.82;57.44;100293.16;5032463;28;20279;-64
2021/08/08 02:23:05;;;;;;;5.93;1.63;;;;;;;21.74;57.50;100283.38;5032207;28;20254;-63
2021/08/08 02:25:31;;;;;;;4.43;1.70;;;;;;;21.81;57.63;100289.69;5032456;28;20022;-64
2021/08/08 02:27:56;;;;;;;4.63;1.63;;;;;;;21.81;57.46;100289.69;5031933;28;20037;-64
2021/08/08 02:30:21;;;;;;;4.88;1.70;;;;;;;21.80;57.60;100293.34;5031420;28;20026;-63
2021/08/08 02:32:46;;;;;;;4.85;1.67;;;;;;;21.78;57.33;100294.47;5031950;28;20152;-63
2021/08/08 02:35:15;;;;;;;4.97;1.60;;;;;;;21.79;57.25;100301.44;5032328;28;20052;-64
2021/08/08 02:37:40;;;;;;;6.15;1.67;;;;;;;21.79;57.32;100302.28;5031226;28;20032;-63
2021/08/08 02:40:09;;;;;;;5.47;1.73;;;;;;;21.76;57.32;100305.25;5031598;28;20113;-63
2021/08/08 02:42:34;;;;;;;4.75;1.60;;;;;;;21.78;57.17;100316.53;5032120;28;20025;-63
2021/08/08 02:44:59;;;;;;;4.60;1.70;;;;;;;21.78;57.39;100324.50;5030882;28;20543;-63
2021/08/08 02:47:27;;;;;;;5.20;2.00;;;;;;;21.79;57.24;100327.97;5032226;28;20489;-63
2021/08/08 02:49:52;;;;;;;5.53;1.50;;;;;;;21.77;57.33;100328.13;5031716;28;20021;-64
2021/08/08 02:52:18;;;;;;;4.00;1.60;;;;;;;21.73;57.42;100324.97;5031146;28;20084;-62
2021/08/08 02:54:44;;;;;;;5.35;1.60;;;;;;;21.77;57.11;100330.78;5031365;28;20541;-63
2021/08/08 02:57:09;;;;;;;4.07;1.70;;;;;;;21.77;57.15;100341.38;5031997;28;20073;-63
2021/08/08 02:59:37;;;;;;;5.97;2.10;;;;;;;21.76;57.16;100339.72;5031136;28;20034;-63
2021/08/08 03:02:03;;;;;;;3.05;1.30;;;;;;;21.76;57.23;100345.03;5031714;28;20615;-63
2021/08/08 03:04:29;;;;;;;6.82;1.85;;;;;;;21.76;57.08;100352.16;5031989;28;20025;-64
2021/08/08 03:06:54;;;;;;;3.85;1.70;;;;;;;21.75;57.03;100356.66;5030648;28;20155;-63
2021/08/08 03:09:20;;;;;;;4.72;1.58;;;;;;;21.74;57.07;100355.78;5031627;28;20034;-63
2021/08/08 03:11:48;;;;;;;3.95;1.60;;;;;;;21.73;57.09;100359.47;5031543;28;20468;-64
2021/08/08 03:14:15;;;;;;;3.80;1.30;;;;;;;21.74;56.95;100360.28;5031253;28;20033;-64
2021/08/08 03:16:44;;;;;;;4.75;1.70;;;;;;;21.74;57.08;100363.75;5031988;28;20048;-63
2021/08/08 03:19:11;;;;;;;4.00;1.30;;;;;;;21.73;56.83;100367.41;5031644;28;20065;-63
2021/08/08 03:21:36;;;;;;;6.53;1.80;;;;;;;21.73;56.96;100371.91;5030990;28;20088;-63
2021/08/08 03:24:05;;;;;;;4.78;1.88;;;;;;;21.72;57.03;100363.09;5031397;28;20049;-63
2021/08/08 03:26:32;;;;;;;4.80;1.50;;;;;;;21.72;56.92;100371.03;5031259;28;20077;-63
2021/08/08 03:29:00;;;;;;;5.68;2.10;;;;;;;21.71;57.03;100361.44;5031854;28;20049;-63
2021/08/08 03:31:27;;;;;;;4.97;1.70;;;;;;;21.72;57.03;100368.38;5032174;28;20032;-63
2021/08/08 03:33:54;;;;;;;6.43;1.65;;;;;;;21.72;57.08;100371.03;5031328;28;20033;-64
2021/08/08 03:36:19;;;;;;;4.80;1.65;;;;;;;21.72;56.85;100370.22;5032038;28;20037;-64
2021/08/08 03:38:44;;;;;;;7.10;1.92;;;;;;;21.72;56.78;100370.22;5031311;28;20029;-62
2021/08/08 03:41:10;;;;;;;6.32;1.92;;;;;;;21.73;57.10;100377.19;5030705;28;20025;-63
2021/08/08 03:43:35;;;;;;;4.70;1.55;;;;;;;21.71;56.92;100384.47;5031408;28;20025;-64
2021/08/08 03:46:00;;;;;;;8.35;3.28;;;;;;;21.70;56.97;100381.00;5031254;28;20100;-63
2021/08/08 03:48:25;;;;;;;5.47;1.70;;;;;;;21.70;56.76;100388.94;5030624;28;20029;-63
2021/08/08 03:50:53;;;;;;;5.30;2.33;;;;;;;21.69;56.97;100384.63;5031299;28;20441;-63
2021/08/08 03:53:19;;;;;;;4.10;1.55;;;;;;;21.69;56.88;100395.22;5034801;28;20108;-64
2021/08/08 03:55:49;;;;;;;5.35;1.88;;;;;;;21.70;56.73;100398.72;5033702;28;20572;-63
2021/08/08 03:58:17;;;;;;;5.43;2.03;;;;;;;21.69;56.72;100399.72;5034974;28;20080;-63
2021/08/08 04:00:43;;;;;;;4.10;1.70;;;;;;;21.69;56.54;100408.50;5034897;28;20104;-63
2021/08/08 04:03:08;;;;;;;3.13;1.30;;;;;;;21.66;56.93;100403.50;5034258;28;20556;-64
2021/08/08 04:05:34;;;;;;;6.75;1.63;;;;;;;21.70;56.87;100409.34;5034961;28;20025;-64
2021/08/08 04:08:00;;;;;;;5.65;1.65;;;;;;;21.68;56.59;100411.28;5034379;28;20113;-63
2021/08/08 04:10:25;;;;;;;4.20;1.73;;;;;;;21.67;56.62;100413.13;5033906;28;20473;-64
2021/08/08 04:12:51;;;;;;;4.10;1.77;;;;;;;21.62;56.65;100407.47;5034445;28;20025;-63
2021/08/08 04:15:16;;;;;;;4.57;1.50;;;;;;;21.68;56.61;100420.09;5034497;28;20025;-63
2021/08/08 04:17:44;;;;;;;4.97;1.58;;;;;;;21.67;56.53;100414.97;5033950;28;20270;-64
2021/08/08 04:20:11;;;;;;;5.38;1.90;;;;;;;21.67;56.74;100421.09;5034503;28;20069;-63
2021/08/08 04:22:39;;;;;;;4.88;1.50;;;;;;;21.67;56.59;100425.56;5034152;28;20025;-63
2021/08/08 04:25:05;;;;;;;5.47;1.55;;;;;;;21.60;56.58;100414.72;5034317;28;20121;-63
2021/08/08 04:27:30;;;;;;;5.90;1.73;;;;;;;21.66;56.60;100423.88;5034527;28;20021;-63
2021/08/08 04:29:56;;;;;;;5.07;1.45;;;;;;;21.66;56.62;100429.19;5033262;28;20056;-64
2021/08/08 04:32:23;;;;;;;4.95;1.60;;;;;;;21.65;56.41;100422.22;5034513;28;20025;-64
2021/08/08 04:34:48;;;;;;;5.00;1.80;;;;;;;21.65;56.45;100430.16;5034036;28;20025;-64
2021/08/08 04:37:14;;;;;;;4.13;1.60;;;;;;;21.65;56.59;100440.78;5033350;28;20036;-63
2021/08/08 04:39:39;;;;;;;5.33;2.37;;;;;;;21.65;56.41;100441.63;5034019;28;20286;-63
2021/08/08 04:42:04;;;;;;;4.67;1.70;;;;;;;21.63;56.63;100440.13;5033980;28;20357;-63
2021/08/08 04:44:33;;;;;;;5.55;1.90;;;;;;;21.65;56.54;100443.44;5033435;28;20658;-63
2021/08/08 04:46:58;;;;;;;7.07;2.05;;;;;;;21.63;56.44;100437.47;5033806;28;20022;-63
2021/08/08 04:49:23;;;;;;;7.63;2.63;;;;;;;21.63;56.55;100443.59;5033931;28;20311;-63
2021/08/08 04:51:48;;;;;;;5.45;1.83;;;;;;;21.63;56.43;100454.19;5032921;28;20473;-63
2021/08/08 04:54:14;;;;;;;5.53;1.77;;;;;;;21.63;56.46;100450.72;5033635;28;20044;-63
2021/08/08 04:56:39;;;;;;;5.82;2.08;;;;;;;21.64;56.41;100461.16;5033674;28;20025;-63
2021/08/08 04:59:05;;;;;;;5.82;1.75;;;;;;;21.63;56.45;100464.81;5032979;28;20109;-63
2021/08/08 05:01:30;;;;;;;5.25;1.65;;;;;;;21.63;56.25;100458.69;5033790;28;20124;-63
2021/08/08 05:03:56;;;;;;;5.75;1.80;;;;;;;21.62;56.43;100457.00;5032098;28;20053;-63
2021/08/08 05:06:22;;;;;;;6.50;2.10;;;;;;;21.62;56.42;100459.66;5032319;28;20037;-63
2021/08/08 05:08:47;;;;;;;7.32;2.00;;;;;;;21.63;56.14;100464.81;5033155;28;20029;-64
2021/08/08 05:11:17;;;;;;;5.45;1.83;;;;;;;21.63;56.39;100469.28;5033194;28;20026;-63
2021/08/08 05:13:42;;;;;;;7.40;1.92;;;;;;;21.61;56.42;100474.75;5032562;28;20028;-64
2021/08/08 05:16:08;;;;;;;5.65;1.83;;;;;;;21.61;56.39;100472.09;5034215;28;20401;-64
2021/08/08 05:18:33;;;;;;;5.00;1.77;;;;;;;21.61;56.59;100476.56;5037437;28;20044;-63
2021/08/08 05:20:58;;;;;;;5.73;2.03;;;;;;;21.61;56.40;100480.03;5035812;28;20659;-63
2021/08/08 05:23:23;;;;;;;5.57;1.92;;;;;;;21.61;56.40;100482.69;5037167;28;20333;-63
2021/08/08 05:25:49;;;;;;;5.33;1.70;;;;;;;21.61;56.26;100492.47;5036886;28;20350;-64
2021/08/08 05:28:14;;;;;;;5.70;1.80;;;;;;;21.61;55.99;100485.34;5035908;28;20290;-63
2021/08/08 05:30:40;;;;;;;5.28;2.00;;;;;;;21.61;56.30;100495.97;5036585;28;20029;-63
2021/08/08 05:33:05;;;;;;;5.32;1.75;;;;;;;21.59;56.32;100499.75;5036333;28;20065;-63
2021/08/08 05:35:31;;;;;;;4.55;1.80;;;;;;;21.61;56.26;100498.59;5037157;28;20048;-63
2021/08/08 05:37:56;;;;;;;5.13;1.75;;;;;;;21.61;56.33;100495.13;5036952;28;20030;-64
2021/08/08 05:40:21;;;;;;;5.17;1.63;;;;;;;21.60;56.24;100504.06;5036611;28;20366;-64
2021/08/08 05:42:50;;;;;;;5.20;1.75;;;;;;;21.61;56.44;100503.09;5033778;28;20275;-63
2021/08/08 05:45:19;;;;;;;4.70;1.77;;;;;;;21.60;56.32;100510.19;5033917;28;20049;-64
2021/08/08 05:47:45;;;;;;;5.65;2.00;;;;;;;21.59;56.33;100508.53;5032700;28;20056;-64
2021/08/08 05:50:10;;;;;;;6.53;1.60;;;;;;;21.60;56.27;100504.06;5033111;28;20029;-63
2021/08/08 05:52:35;;;;;;;5.28;1.60;;;;;;;21.57;56.15;100515.84;5033313;28;20028;-64
2021/08/08 05:55:01;;;;;;;4.72;1.67;;;;;;;21.57;56.28;100518.50;5032445;28;20077;-64
2021/08/08 05:57:26;;;;;;;4.95;1.50;;;;;;;21.59;56.28;100518.31;5033919;28;20507;-63
2021/08/08 05:59:51;;;;;;;6.65;2.00;;;;;;;21.58;56.15;100522.78;5034230;28;20075;-64
2021/08/08 06:02:17;;;;;;;4.50;1.77;;;;;;;21.59;56.22;100531.56;5033055;28;20032;-64
2021/08/08 06:04:42;;;;;;;5.15;1.70;;;;;;;21.46;56.08;100508.06;5034153;28;20397;-64
2021/08/08 06:07:07;;;;;;;5.53;1.63;;;;;;;21.58;55.79;100538.69;5033695;28;20281;-64
2021/08/08 06:09:33;;;;;;;5.40;1.70;;;;;;;21.57;56.13;100537.03;5034063;28;20032;-63
2021/08/08 06:11:58;;;;;;;6.35;1.60;;;;;;;21.56;56.28;100535.38;5034132;28;20026;-64
2021/08/08 06:14:23;;;;;;;5.13;1.58;;;;;;;21.58;56.15;100541.34;5034585;28;20029;-63
2021/08/08 06:16:48;;;;;;;4.90;1.80;;;;;;;21.57;56.08;100545.00;5032177;28;20121;-63
2021/08/08 06:19:14;;;;;;;5.55;1.88;;;;;;;21.58;56.13;100551.94;5032573;28;20026;-64
2021/08/08 06:21:42;;;;;;;4.17;1.60;;;;;;;21.56;56.21;100551.28;5032262;28;20526;-63
2021/08/08 06:24:07;;;;;;;6.30;1.85;;;;;;;21.57;56.07;100560.91;5031452;28;20108;-63
2021/08/08 06:26:33;;;;;;;5.27;1.73;;;;;;;21.58;56.06;100559.91;5032489;28;20056;-64
2021/08/08 06:28:58;;;;;;;5.28;1.92;;;;;;;21.58;55.99;100570.50;5031765;28;20278;-63
2021/08/08 06:31:24;;;;;;;5.65;2.00;;;;;;;21.58;56.14;100564.38;5031621;28;20108;-63
2021/08/08 06:33:55;;;;;;;6.15;1.67;;;;;;;21.56;56.07;100575.16;5031981;28;20040;-64
2021/08/08 06:36:20;;;;;;;5.45;1.80;;;;;;;21.57;56.04;100568.88;5031731;28;20029;-64
2021/08/08 06:38:46;;;;;;;5.70;2.15;;;;;;;21.58;56.04;100580.28;5031997;28;20430;-63
2021/08/08 06:41:11;;;;;;;5.93;1.98;;;;;;;21.58;56.13;100580.28;5032190;28;20438;-63
2021/08/08 06:43:36;;;;;;;4.67;1.47;;;;;;;21.56;55.86;100581.25;5031393;28;20481;-61
2021/08/08 06:46:01;;;;;;;7.67;2.00;;;;;;;21.59;56.01;100592.53;5031651;28;20571;-64
2021/08/08 06:48:27;;;;;;;6.23;1.83;;;;;;;21.58;56.14;100594.38;5031767;28;20283;-63
2021/08/08 06:50:58;;;;;;;7.75;1.80;;;;;;;21.59;56.10;100596.06;5030658;28;20320;-62
2021/08/08 06:53:23;;;;;;;5.72;1.90;;;;;;;21.58;56.33;100601.50;5031797;28;20024;-62
2021/08/08 06:55:48;;;;;;;6.82;2.20;;;;;;;21.59;56.39;100604.00;5031749;28;20029;-64
2021/08/08 06:58:14;;;;;;;6.07;1.65;;;;;;;21.60;56.66;100603.00;5031018;28;20030;-63
2021/08/08 07:00:39;;;;;;;4.80;1.90;;;;;;;21.60;56.54;100610.13;5032046;28;20036;-63
2021/08/08 07:03:06;;;;;;;4.15;1.50;;;;;;;21.60;56.61;100610.97;5031553;28;20072;-63
2021/08/08 07:05:34;;;;;;;5.63;1.95;;;;;;;21.61;56.65;100625.06;5031245;28;20026;-63
2021/08/08 07:07:59;;;;;;;5.15;1.77;;;;;;;21.61;56.59;100609.97;5031575;28;20025;-63
2021/08/08 07:10:25;;;;;;;4.55;1.90;;;;;;;21.60;56.56;100623.38;5031884;28;20095;-61
2021/08/08 07:12:50;;;;;;;7.43;2.47;;;;;;;21.60;56.64;100620.75;5030546;28;20064;-62
2021/08/08 07:15:15;;;;;;;5.30;2.03;;;;;;;21.62;56.71;100630.22;5031695;28;20029;-65
2021/08/08 07:17:41;;;;;;;4.40;1.70;;;;;;;21.59;56.78;100625.22;5031478;28;20266;-65
2021/08/08 07:20:08;;;;;;;7.60;1.73;;;;;;;21.66;56.87;100625.44;5030515;28;20068;-65
2021/08/08 07:22:33;;;;;;;4.82;1.90;;;;;;;21.69;56.98;100635.75;5032167;28;20271;-63
2021/08/08 07:24:58;;;;;;;6.72;1.98;;;;;;;21.71;57.10;100625.81;5031961;28;20531;-64
2021/08/08 07:27:24;;;;;;;6.60;1.90;;;;;;;21.73;57.10;100637.94;5035488;28;20024;-65
2021/08/08 07:29:49;;;;;;;6.50;1.92;;;;;;;21.77;56.99;100637.63;5035526;28;20040;-67
2021/08/08 07:32:14;;;;;;;6.63;2.00;;;;;;;21.78;56.92;100632.16;5035695;28;20108;-67
2021/08/08 07:34:40;;;;;;;6.63;1.83;;;;;;;21.81;56.91;100634.50;5035139;28;20297;-68
2021/08/08 07:37:05;;;;;;;4.88;1.45;;;;;;;21.82;57.08;100630.84;5035392;28;20021;-67
2021/08/08 07:39:32;;;;;;;5.63;1.95;;;;;;;21.83;57.04;100637.84;5034834;28;20036;-69
2021/08/08 07:41:57;;;;;;;4.35;1.58;;;;;;;21.84;57.04;100641.31;5034917;28;20075;-67
2021/08/08 07:44:25;;;;;;;4.82;1.75;;;;;;;21.86;57.01;100644.66;5036287;28;20033;-68
2021/08/08 07:46:51;;;;;;;5.22;1.70;;;;;;;21.84;56.81;100643.97;5034531;28;20021;-67
2021/08/08 07:49:22;;;;;;;6.97;2.03;;;;;;;21.86;57.12;100644.66;5035521;28;20033;-67
2021/08/08 07:51:47;;;;;;;5.07;1.73;;;;;;;21.81;56.82;100636.31;5035133;28;20017;-66
2021/08/08 07:54:13;;;;;;;5.00;1.55;;;;;;;21.88;56.84;100645.34;5034633;28;20064;-67
2021/08/08 07:56:41;;;;;;;5.35;1.60;;;;;;;21.91;56.87;100660.94;5035224;28;20080;-67
2021/08/08 07:59:06;;;;;;;5.80;1.75;;;;;;;21.88;56.72;100654.13;5034894;28;20385;-68
2021/08/08 08:01:32;;;;;;;6.32;2.00;;;;;;;21.88;56.84;100648.81;5034448;28;20739;-66
2021/08/08 08:04:00;;;;;;;8.77;1.75;;;;;;;21.90;56.68;100659.28;5034996;28;20022;-66
2021/08/08 08:06:26;;;;;;;5.32;1.60;;;;;;;21.91;56.99;100655.66;5035259;28;20029;-69
2021/08/08 08:08:51;;;;;;;6.60;1.88;;;;;;;21.91;56.83;100650.34;5034351;28;20472;-66
2021/08/08 08:11:22;;;;;;;7.57;1.95;;;;;;;21.91;57.05;100660.94;5035524;28;20044;-65
2021/08/08 08:13:47;;;;;;;4.05;1.55;;;;;;;21.92;56.95;100662.59;5035099;28;20018;-67
2021/08/08 08:16:13;;;;;;;6.80;1.60;;;;;;;21.91;57.06;100676.88;5035347;28;20028;-68
2021/08/08 08:18:39;;;;;;;4.78;1.70;;;;;;;21.90;57.16;100660.13;5036333;28;20349;-68
2021/08/08 08:21:04;;;;;;;4.53;1.55;;;;;;;21.88;56.99;100666.56;5035614;28;20071;-68
2021/08/08 08:23:30;;;;;;;5.60;1.65;;;;;;;21.91;57.11;100679.53;5034338;28;20037;-67
2021/08/08 08:25:55;;;;;;;5.45;1.73;;;;;;;21.91;56.82;100676.88;5035574;28;20041;-67
2021/08/08 08:28:20;;;;;;;5.82;1.60;;;;;;;21.91;57.04;100679.53;5035124;28;20496;-67
2021/08/08 08:30:46;;;;;;;5.07;1.70;;;;;;;21.92;56.95;100679.38;5033834;28;20025;-66
2021/08/08 08:33:14;;;;;;;6.68;2.00;;;;;;;21.93;57.04;100678.38;5035378;28;20025;-67
2021/08/08 08:35:39;;;;;;;7.07;1.70;;;;;;;21.90;56.86;100676.03;5035801;28;20377;-66
2021/08/08 08:38:07;;;;;;;4.22;1.50;;;;;;;21.94;56.81;100689.81;5033423;28;20481;-66
2021/08/08 08:40:36;;;;;;;5.03;1.83;;;;;;;21.95;56.95;100677.38;5034423;28;20079;-68
2021/08/08 08:43:02;;;;;;;5.75;1.55;;;;;;;21.96;56.94;100689.69;5033113;28;20078;-66
2021/08/08 08:45:28;;;;;;;5.80;1.75;;;;;;;21.96;56.80;100689.69;5034254;28;20159;-66
2021/08/08 08:47:58;;;;;;;4.03;1.52;;;;;;;21.97;56.65;100694.84;5034915;28;20120;-67
2021/08/08 08:50:24;;;;;;;3.45;1.50;;;;;;;21.95;56.78;100694.13;5033446;28;20032;-65
2021/08/08 08:52:51;;;;;;;6.03;1.63;;;;;;;21.96;56.93;100692.31;5033978;28;20033;-66
2021/08/08 08:55:19;;;;;;;6.55;1.88;;;;;;;21.93;56.74;100691.63;5033980;28;20056;-66
2021/08/08 08:57:48;;;;;;;4.88;1.70;;;;;;;21.98;56.50;100698.31;5034049;28;20026;-65
2021/08/08 09:00:14;;;;;;;5.35;1.60;;;;;;;21.95;56.33;100698.63;5035964;28;20209;-67
2021/08/08 09:02:40;;;;;;;5.43;1.50;;;;;;;21.96;56.77;100701.13;5034017;28;20045;-66
2021/08/08 09:05:05;;;;;;;5.78;1.58;;;;;;;22.00;56.24;100706.94;5033383;28;20166;-65
2021/08/08 09:07:30;;;;;;;4.85;1.85;;;;;;;21.99;56.32;100708.78;5034989;28;20029;-64
2021/08/08 09:09:57;;;;;;;4.50;1.70;;;;;;;21.99;56.50;100715.91;5033608;28;20064;-65
2021/08/08 09:12:24;;;;;;;5.25;1.60;;;;;;;22.00;56.47;100717.56;5032932;28;20108;-63
2021/08/08 09:15:01;;;;;;;4.68;1.80;;;;;;;22.02;56.55;100724.38;5033387;28;20049;-64
2021/08/08 09:17:27;;;;;;;5.13;1.88;;;;;;;22.03;56.21;100722.56;5033697;28;20037;-65
2021/08/08 09:20:01;;;;;;;3.15;1.30;;;;;;;22.00;56.50;100739.63;5032028;28;20290;-65
2021/08/08 09:22:32;;;;;;;4.57;1.67;;;;;;;22.02;56.62;100737.66;5033229;28;20469;-65
2021/08/08 09:25:00;;;;;;;4.72;1.58;;;;;;;22.03;56.28;100747.28;5032950;28;20038;-65
2021/08/08 09:27:31;;;;;;;5.00;1.70;;;;;;;22.04;56.33;100750.75;5032670;28;20030;-65
2021/08/08 09:29:56;;;;;;;5.20;1.55;;;;;;;22.02;56.38;100750.91;5032910;28;20025;-65
2021/08/08 09:32:29;;;;;;;4.95;1.60;;;;;;;22.03;56.33;100754.41;5032555;28;20044;-65
2021/08/08 09:35:04;;;;;;;4.55;1.92;;;;;;;22.01;56.30;100753.72;5033070;28;20480;-65
2021/08/08 09:37:29;;;;;;;6.00;1.70;;;;;;;22.04;56.29;100754.25;5033337;28;20203;-67
2021/08/08 09:39:55;;;;;;;5.20;1.80;;;;;;;22.05;56.48;100766.53;5032211;28;20493;-65
2021/08/08 09:42:25;;;;;;;5.90;2.25;;;;;;;22.05;56.37;100766.53;5033929;28;20079;-65
2021/08/08 09:45:06;;;;;;;3.17;1.40;;;;;;;22.04;56.42;100774.66;5033724;28;20033;-64
2021/08/08 09:47:41;;;;;;;5.03;1.42;;;;;;;22.05;56.38;100778.97;5032526;28;20037;-65
2021/08/08 09:50:18;;;;;;;5.35;1.67;;;;;;;22.05;56.41;100774.50;5031907;28;20052;-65
2021/08/08 09:52:55;;;;;;;4.38;1.70;;;;;;;22.06;56.32;100775.31;5032632;28;20417;-63
2021/08/08 09:55:24;;;;;;;3.75;1.40;;;;;;;22.05;56.37;100793.06;5032075;28;20496;-62
2021/08/08 09:57:50;;;;;;;3.78;1.33;;;;;;;22.06;56.29;100792.09;5032603;28;20034;-63
2021/08/08 10:00:42;;;;;;;4.47;1.73;;;;;;;22.07;56.15;100798.22;5032069;28;20033;-65
2021/08/08 10:03:12;;;;;;;4.68;1.60;;;;;;;22.06;56.23;100802.72;5028532;28;20044;-65
2021/08/08 10:05:39;;;;;;;5.78;1.77;;;;;;;22.06;56.30;100802.72;5033003;28;20251;-67
2021/08/08 10:08:10;;;;;;;3.72;1.35;;;;;;;22.08;56.25;100813.19;5032002;28;20033;-68
2021/08/08 10:10:37;;;;;;;4.72;1.95;;;;;;;22.09;56.39;100806.88;5032482;28;20049;-65
2021/08/08 10:13:12;;;;;;;3.90;1.50;;;;;;;22.09;56.10;100806.88;5032233;28;20025;-66
2021/08/08 10:15:45;;;;;;;3.42;1.40;;;;;;;22.09;56.40;100802.38;5031965;28;20044;-63
2021/08/08 10:18:14;;;;;;;4.18;1.85;;;;;;;22.07;56.06;100801.72;5032687;28;20279;-65
2021/08/08 10:20:46;;;;;;;4.28;1.60;;;;;;;22.09;56.01;100813.00;5032688;28;20041;-65
2021/08/08 10:23:14;;;;;;;5.03;1.60;;;;;;;22.09;56.18;100802.38;5032375;28;20110;-65
2021/08/08 10:25:40;;;;;;;3.65;1.58;;;;;;;22.09;56.20;100810.34;5034940;28;20026;-63
2021/08/08 10:28:07;;;;;;;4.78;1.50;;;;;;;22.08;56.17;100811.34;5033561;28;20026;-66
2021/08/08 10:30:34;;;;;;;4.80;1.50;;;;;;;22.08;56.09;100816.66;5031908;28;20032;-63
2021/08/08 10:33:09;;;;;;;5.45;1.75;;;;;;;22.05;56.13;100813.47;5032178;28;20059;-66
2021/08/08 10:35:44;;;;;;;4.70;1.52;;;;;;;22.08;55.96;100818.50;5031725;28;20160;-67
2021/08/08 10:38:11;;;;;;;7.47;1.60;;;;;;;22.06;56.10;100820.44;5032272;28;20026;-63
2021/08/08 10:40:37;;;;;;;4.43;1.40;;;;;;;22.07;56.17;100814.97;5032441;28;20022;-63
2021/08/08 10:43:04;;;;;;;2.70;1.30;;;;;;;22.08;56.06;100810.53;5031091;28;20274;-64
2021/08/08 10:45:32;;;;;;;5.22;1.58;;;;;;;22.07;56.05;100816.81;5032256;28;20116;-64
2021/08/08 10:48:03;;;;;;;6.03;1.70;;;;;;;22.08;56.08;100821.97;5031851;28;20041;-66
2021/08/08 10:50:34;;;;;;;3.47;1.38;;;;;;;22.09;56.11;100820.97;5031353;28;20029;-65
2021/08/08 10:52:59;;;;;;;4.95;1.70;;;;;;;22.10;56.03;100814.69;5032014;28;20037;-65
2021/08/08 10:55:29;;;;;;;7.30;1.65;;;;;;;22.12;56.13;100808.41;5031878;28;20049;-67
2021/08/08 10:57:55;;;;;;;5.90;1.67;;;;;;;22.13;56.13;100810.03;5031193;28;20034;-66
2021/08/08 11:00:21;;;;;;;3.63;1.25;;;;;;;22.15;55.97;100800.13;5033240;28;20021;-66
2021/08/08 11:02:47;;;;;;;5.10;1.55;;;;;;;22.17;55.76;100812.25;5035691;28;20107;-65
2021/08/08 11:05:17;;;;;;;6.22;1.60;;;;;;;22.16;55.72;100796.47;5035500;28;20025;-65
2021/08/08 11:07:45;;;;;;;5.57;1.60;;;;;;;22.18;55.78;100808.63;5036023;28;20067;-63
2021/08/08 11:10:12;;;;;;;6.68;1.52;;;;;;;22.16;55.50;100799.97;5036920;28;20389;-65
2021/08/08 11:12:40;;;;;;;5.32;1.70;;;;;;;22.19;55.34;100801.47;5035658;28;20021;-63
2021/08/08 11:15:10;;;;;;;4.40;1.50;;;;;;;22.19;55.35;100801.47;5035791;28;20017;-68
2021/08/08 11:17:36;;;;;;;4.82;1.73;;;;;;;22.20;54.96;100792.53;5035732;28;20025;-65
2021/08/08 11:20:02;;;;;;;5.50;1.60;;;;;;;22.21;55.15;100787.06;5036369;28;20350;-66
2021/08/08 11:22:28;;;;;;;4.82;1.73;;;;;;;22.21;54.72;100795.03;5035334;28;20037;-65